Galva, IA (51020)

2:46 PM CDT on July 05, 2015 (GMT -0500)
Holstein Ag Services, LLC | | Change Station
CLOSE
Current Station
Personal Weather Station
Location: Holstein, IA
Elevation: 1381 ft
Nearby Weather Stations

Elev 1381 ft 42.50 °N, 95.54 °W | Updated 26 seconds ago

Clear
Clear
83.7 °F
Feels Like 89 °F
N
15.0
Wind Variable Wind from SE
Gusts 28.0 mph

Today
High -- | Low -- °F
--% Chance of Precip.
Yesterday
High -- | Low -- °F
Precip. -- in
5:50 AM 9:01 PM
Waning Gibbous, 82% visible
Pressure 29.89 in
Visibility 9.0 miles
Clouds Few 2900 ft
Few 3400 ft
Heat Index 89 °F
Dew Point 71 °F
Humidity 67%
Rainfall 0.00 in
Snow Depth Not available.
UV 10 out of 12
Pollen 4.80 out of 12
Air Quality Not available.
Flu Activity Not available.
METAR KSLB 051935Z AUTO 16016G24KT 9SM FEW029 FEW034 29/22 A2989 RMK AO2

More Conditions Fewer Conditions

Pressure 29.89 in
Visibility 9.0 miles
Clouds Few 2900 ft
Few 3400 ft
Heat Index 89 °F
Dew Point 71 °F
Humidity 67%
Rainfall 0.00 in
Snow Depth Not available.
UV 10 out of 12
Pollen 4.80 out of 12
Air Quality Not available.
Flu Activity Not available.
METAR KSLB 051935Z AUTO 16016G24KT 9SM FEW029 FEW034 29/22 A2989 RMK AO2

More Conditions Fewer Conditions

10-Day Weather Forecast

×

Almanac

Astronomy

Jul. 05, 2015 Rise Set
Actual Time
Civil Twilight
Nautical Twilight
Astronomical Twilight
Moon
Length of Visible Light
Length of Day
Tomorrow will be .
, % of the Moon is Illuminated

Today's Extremes

State Highs State Lows

Community

WunderPhotos

Upload Photos

1,835,360 photos uploaded!

WunderBlogs® & News

Nearby

Air Quality

  Air Quality AQ Index Pollutant
Not available.

Snow Depth

Station Depth Elevation

Earthquake Activity

City Distance Mag. Time & Date
Minimum magnitude displayed is 2.5.

Coastal Water Temperatures

Place Temperature

Stations

Nearby Weather Stations

Station Location Temp. Windchill Dew Point Humidity Wind Precip. Elev Updated Type